Time;durP1;ratioP1;P1;durP2;ratioP2;P2;SDS_P1;SDS_P2;PMS_P1;PMS_P2;Temp;Humidity;BMP_temperature;BMP_pressure;BME280_temperature;BME280_humidity;BME280_pressure;Samples;Min_cycle;Max_cycle;Signal;HPM_P1;HPM_P2
2022/03/27 00:02:18;;;;;;;2.65;0.82;;;22.30;99.90;;;;;;4927439;29;21829;-73
2022/03/27 00:04:46;;;;;;;1.60;0.43;;;21.80;99.90;;;;;;4934100;29;20095;-74
2022/03/27 00:07:13;;;;;;;2.05;0.35;;;21.20;99.90;;;;;;4926589;29;20028;-73
2022/03/27 00:09:40;;;;;;;2.47;0.20;;;20.70;99.90;;;;;;4932981;29;20050;-73
2022/03/27 00:12:08;;;;;;;1.70;0.30;;;20.40;99.90;;;;;;4932833;29;20051;-74
2022/03/27 00:14:36;;;;;;;2.28;0.45;;;20.30;99.90;;;;;;4930175;29;20032;-74
2022/03/27 00:17:04;;;;;;;0.60;0.30;;;20.30;99.90;;;;;;4930226;29;20066;-76
2022/03/27 00:19:31;;;;;;;0.80;0.30;;;20.30;99.90;;;;;;4936179;29;20055;-75
2022/03/27 00:21:58;;;;;;;2.28;0.40;;;20.40;99.90;;;;;;4923684;29;20127;-74
2022/03/27 00:24:27;;;;;;;5.78;0.38;;;20.40;99.90;;;;;;4927437;29;20070;-75
2022/03/27 00:26:55;;;;;;;6.40;0.77;;;20.40;99.90;;;;;;4925080;29;20035;-78
2022/03/27 00:29:22;;;;;;;1.95;0.43;;;20.50;99.90;;;;;;4933836;29;20130;-76
2022/03/27 00:31:50;;;;;;;3.95;0.40;;;20.40;99.90;;;;;;4928812;29;20422;-77
2022/03/27 00:34:19;;;;;;;0.55;0.30;;;20.50;99.90;;;;;;4929325;29;20027;-77
2022/03/27 00:36:46;;;;;;;0.30;0.20;;;20.50;99.90;;;;;;4928843;29;20050;-76
2022/03/27 00:39:14;;;;;;;1.58;0.20;;;20.60;99.90;;;;;;4935489;29;20020;-76
2022/03/27 00:41:43;;;;;;;2.35;0.32;;;20.70;99.90;;;;;;4934248;29;20494;-76
2022/03/27 00:44:11;;;;;;;1.33;0.47;;;20.70;99.90;;;;;;4934432;29;20074;-76
2022/03/27 00:46:38;;;;;;;3.10;0.73;;;20.80;99.90;;;;;;4931093;29;20091;-76
2022/03/27 00:49:06;;;;;;;3.22;1.08;;;20.80;99.90;;;;;;4933845;29;20561;-76
2022/03/27 00:51:33;;;;;;;4.40;1.15;;;20.90;99.90;;;;;;4934651;29;20036;-74
2022/03/27 00:54:01;;;;;;;4.57;0.77;;;21.00;99.90;;;;;;4933489;29;20399;-77
2022/03/27 00:56:28;;;;;;;1.70;0.40;;;21.00;99.90;;;;;;4929853;29;20076;-75
2022/03/27 00:58:55;;;;;;;2.42;0.60;;;21.20;99.90;;;;;;4916087;29;20028;-76
2022/03/27 01:01:35;;;;;;;2.55;0.38;;;21.40;99.90;;;;;;4927940;29;20048;-76
2022/03/27 01:04:04;;;;;;;2.58;0.45;;;21.60;99.90;;;;;;4933462;29;20035;-75
2022/03/27 01:06:34;;;;;;;2.78;0.63;;;21.90;99.90;;;;;;4931770;29;20055;-75
2022/03/27 01:11:51;;;;;;;1.38;0.80;;;22.70;99.90;;;;;;4928809;29;20615;-75
2022/03/27 01:14:32;;;;;;;1.13;0.73;;;23.40;99.90;;;;;;4920886;29;20020;-75
2022/03/27 01:17:11;;;;;;;2.65;0.82;;;24.10;99.90;;;;;;4931342;29;20043;-75
2022/03/27 01:19:46;;;;;;;1.33;0.50;;;24.90;99.90;;;;;;4934863;29;20551;-76
2022/03/27 01:22:15;;;;;;;0.88;0.30;;;25.40;99.90;;;;;;4928648;29;20040;-75
2022/03/27 01:24:42;;;;;;;2.05;0.75;;;25.60;99.90;;;;;;4924502;29;20046;-76
2022/03/27 01:27:10;;;;;;;1.15;0.38;;;25.40;99.90;;;;;;4931312;29;20471;-74
2022/03/27 01:29:37;;;;;;;6.50;0.35;;;25.60;99.90;;;;;;4934102;29;20035;-76
2022/03/27 01:32:07;;;;;;;1.88;1.17;;;25.80;99.90;;;;;;4931520;29;20479;-75
2022/03/27 01:34:35;;;;;;;3.65;0.77;;;25.90;99.90;;;;;;4934784;29;20032;-75
2022/03/27 01:37:08;;;;;;;1.58;0.30;;;26.10;99.90;;;;;;4929021;29;20507;-75
2022/03/27 01:39:36;;;;;;;1.98;0.52;;;26.30;99.90;;;;;;4931813;29;20042;-74
2022/03/27 01:42:05;;;;;;;0.47;0.20;;;26.50;99.90;;;;;;4926217;29;20040;-74
2022/03/27 01:44:33;;;;;;;2.05;0.85;;;26.70;99.90;;;;;;4934573;29;20075;-75
2022/03/27 01:47:01;;;;;;;1.13;0.30;;;26.90;99.90;;;;;;4930040;29;20031;-77
2022/03/27 01:49:29;;;;;;;0.98;0.30;;;26.90;99.90;;;;;;4934304;29;20035;-75
2022/03/27 01:51:56;;;;;;;4.43;1.83;;;26.60;99.90;;;;;;4930214;29;20538;-73
2022/03/27 01:54:24;;;;;;;2.00;0.50;;;26.50;99.90;;;;;;4933114;29;20099;-73
2022/03/27 01:56:51;;;;;;;4.03;1.17;;;26.30;99.90;;;;;;4925618;29;20023;-76
2022/03/27 01:59:22;;;;;;;1.75;0.38;;;26.20;99.90;;;;;;4933957;29;20423;-76
2022/03/27 02:01:49;;;;;;;1.17;0.40;;;25.90;99.90;;;;;;4926534;29;20042;-72
2022/03/27 02:04:17;;;;;;;0.60;0.20;;;25.50;99.90;;;;;;4927645;29;20084;-76
2022/03/27 02:06:44;;;;;;;4.13;2.13;;;25.40;99.90;;;;;;4923119;29;20509;-74
2022/03/27 02:09:12;;;;;;;2.45;0.82;;;25.00;99.90;;;;;;4923092;29;20037;-75
2022/03/27 02:11:43;;;;;;;0.98;0.30;;;24.70;99.90;;;;;;4916883;29;20043;-75
2022/03/27 02:14:12;;;;;;;2.40;0.40;;;24.50;99.90;;;;;;4927146;29;20050;-74
2022/03/27 02:16:39;;;;;;;1.77;0.50;;;24.30;99.90;;;;;;4924383;29;20457;-75
2022/03/27 02:19:11;;;;;;;3.75;0.50;;;24.30;99.90;;;;;;4930133;29;20050;-74
2022/03/27 02:21:41;;;;;;;2.47;0.25;;;24.10;99.90;;;;;;4923295;29;20032;-74
2022/03/27 02:24:10;;;;;;;1.23;0.30;;;23.90;99.90;;;;;;4925028;29;20028;-74
2022/03/27 02:26:47;;;;;;;1.80;0.40;;;23.80;99.90;;;;;;4933674;29;20082;-74
2022/03/27 02:29:15;;;;;;;0.75;0.40;;;23.70;99.90;;;;;;4941056;29;20057;-74
2022/03/27 02:31:44;;;;;;;2.88;0.70;;;23.50;99.90;;;;;;4938124;29;20060;-73
2022/03/27 02:34:11;;;;;;;2.25;0.28;;;23.00;99.90;;;;;;4933841;29;20208;-73
2022/03/27 02:36:39;;;;;;;1.48;0.40;;;22.50;99.90;;;;;;4932683;29;20020;-72
2022/03/27 02:39:06;;;;;;;1.95;0.77;;;22.10;99.90;;;;;;4925699;29;20043;-74
2022/03/27 02:41:33;;;;;;;2.67;0.30;;;21.90;99.90;;;;;;4921629;29;20023;-74
2022/03/27 02:44:01;;;;;;;1.25;0.88;;;21.70;99.90;;;;;;4924371;29;20027;-74
2022/03/27 02:46:29;;;;;;;1.63;0.40;;;21.50;99.90;;;;;;4930744;29;20031;-72
2022/03/27 02:48:57;;;;;;;4.03;1.38;;;21.40;99.90;;;;;;4932558;29;20032;-71
2022/03/27 02:51:24;;;;;;;1.90;0.47;;;21.30;99.90;;;;;;4937571;29;20043;-75
2022/03/27 02:53:52;;;;;;;4.60;0.70;;;21.10;99.90;;;;;;4938968;29;20040;-74
2022/03/27 02:56:19;;;;;;;2.03;1.08;;;21.00;99.90;;;;;;4937330;29;20038;-75
2022/03/27 02:58:47;;;;;;;3.55;0.60;;;20.90;99.90;;;;;;4939393;29;20106;-74
2022/03/27 03:01:17;;;;;;;1.60;1.15;;;20.90;99.90;;;;;;4933759;29;20027;-76
2022/03/27 03:03:45;;;;;;;3.30;0.40;;;21.00;99.90;;;;;;4933783;29;20435;-75
2022/03/27 03:06:13;;;;;;;0.68;0.32;;;21.10;99.90;;;;;;4938618;29;20024;-75
2022/03/27 03:08:40;;;;;;;1.10;0.40;;;21.20;99.90;;;;;;4931549;29;20054;-76
2022/03/27 03:11:08;;;;;;;0.40;0.20;;;21.30;99.90;;;;;;4938577;29;20039;-74
2022/03/27 03:24:00;;;;;;;0.90;0.38;;;21.80;99.90;;;;;;4538270;29;20158;-74
2022/03/27 03:26:27;;;;;;;;;;;21.90;99.90;;;;;;4914576;29;20055;-73
2022/03/27 03:28:58;;;;;;;0.90;0.13;;;21.90;99.90;;;;;;4914244;29;20029;-74
2022/03/27 03:31:25;;;;;;;0.73;0.43;;;22.00;99.90;;;;;;4904992;29;20036;-74
2022/03/27 03:33:53;;;;;;;1.15;0.20;;;22.00;99.90;;;;;;4905755;29;20039;-74
2022/03/27 03:36:20;;;;;;;2.08;0.40;;;22.00;99.90;;;;;;4905814;29;20056;-74
2022/03/27 03:38:51;;;;;;;0.52;0.20;;;21.90;99.90;;;;;;4905505;29;20808;-74
2022/03/27 03:41:18;;;;;;;1.85;0.20;;;21.90;99.90;;;;;;4905710;29;20476;-75
2022/03/27 03:43:46;;;;;;;1.83;0.20;;;21.90;99.90;;;;;;4911274;29;20843;-75
2022/03/27 03:46:13;;;;;;;1.95;0.50;;;22.00;99.90;;;;;;4906950;29;20041;-74
2022/03/27 03:48:41;;;;;;;0.73;0.20;;;22.10;99.90;;;;;;4910176;29;20162;-73
2022/03/27 03:51:08;;;;;;;4.00;0.30;;;22.10;99.90;;;;;;4914006;29;20043;-75
2022/03/27 03:53:35;;;;;;;0.60;0.20;;;22.20;99.90;;;;;;4913738;29;20066;-74
2022/03/27 03:56:05;;;;;;;3.20;0.30;;;22.30;99.90;;;;;;4911263;29;20024;-74
2022/03/27 03:58:33;;;;;;;0.70;0.22;;;22.30;99.90;;;;;;4915151;29;20391;-73
2022/03/27 04:01:03;;;;;;;1.13;0.10;;;22.30;99.90;;;;;;4904347;29;20293;-74
2022/03/27 04:03:31;;;;;;;1.98;0.50;;;22.30;99.90;;;;;;4913689;29;20145;-75
2022/03/27 04:05:59;;;;;;;1.73;0.70;;;22.30;99.90;;;;;;4909947;29;20036;-76
2022/03/27 04:08:26;;;;;;;3.53;0.57;;;22.40;99.90;;;;;;4915078;29;20039;-75
2022/03/27 04:10:54;;;;;;;2.55;0.32;;;22.40;99.90;;;;;;4913804;29;20459;-74
2022/03/27 04:13:21;;;;;;;0.93;0.30;;;22.50;99.90;;;;;;4911026;29;20136;-74
2022/03/27 04:15:49;;;;;;;1.17;0.40;;;22.50;99.90;;;;;;4912420;29;20044;-74
2022/03/27 04:18:16;;;;;;;1.83;0.20;;;22.60;99.90;;;;;;4916678;29;20028;-74
2022/03/27 04:20:43;;;;;;;1.20;0.20;;;22.60;99.90;;;;;;4911346;29;20506;-74
2022/03/27 04:23:11;;;;;;;1.85;0.20;;;22.70;99.90;;;;;;4903500;29;20036;-74
2022/03/27 04:25:39;;;;;;;1.83;0.30;;;22.70;99.90;;;;;;4925523;29;20054;-74
2022/03/27 04:28:08;;;;;;;1.58;0.30;;;22.80;99.90;;;;;;4934755;29;20114;-74
2022/03/27 04:30:37;;;;;;;1.45;0.25;;;22.80;99.90;;;;;;4925921;29;20032;-73
2022/03/27 04:33:05;;;;;;;0.90;0.30;;;22.80;99.90;;;;;;4920479;29;20043;-72
2022/03/27 04:35:33;;;;;;;2.55;0.43;;;22.90;99.90;;;;;;4923964;29;20454;-72
2022/03/27 04:38:00;;;;;;;1.45;0.20;;;22.90;99.90;;;;;;4925914;29;20229;-73
2022/03/27 04:40:27;;;;;;;3.83;0.40;;;22.90;99.90;;;;;;4928631;29;20506;-74
2022/03/27 04:42:55;;;;;;;2.25;0.30;;;23.00;99.90;;;;;;4934108;29;20027;-72
2022/03/27 04:45:22;;;;;;;2.00;0.30;;;23.00;99.90;;;;;;4928444;29;20028;-72
2022/03/27 04:47:50;;;;;;;2.65;0.30;;;23.00;99.90;;;;;;4926981;29;20391;-73
2022/03/27 04:50:17;;;;;;;0.98;0.20;;;23.00;99.90;;;;;;4933999;29;20023;-72
2022/03/27 04:52:44;;;;;;;1.58;0.43;;;22.90;99.90;;;;;;4931348;29;20142;-73
2022/03/27 04:55:13;;;;;;;4.13;0.40;;;22.90;99.90;;;;;;4931582;29;20024;-73
2022/03/27 04:57:41;;;;;;;1.75;0.22;;;22.80;99.90;;;;;;4929915;29;20037;-75
2022/03/27 05:00:11;;;;;;;4.28;0.40;;;22.80;99.90;;;;;;4931271;29;20474;-75
2022/03/27 05:02:41;;;;;;;1.33;0.17;;;22.80;99.90;;;;;;4934690;29;20394;-72
2022/03/27 05:05:11;;;;;;;1.20;0.60;;;22.80;99.90;;;;;;4928217;29;20076;-73
2022/03/27 05:07:40;;;;;;;1.10;0.30;;;22.80;99.90;;;;;;4930804;29;20372;-75
2022/03/27 05:10:10;;;;;;;0.85;0.30;;;22.90;99.90;;;;;;4924419;29;20040;-72
2022/03/27 05:12:37;;;;;;;2.97;0.47;;;22.90;99.90;;;;;;4926511;29;20044;-73
2022/03/27 05:15:06;;;;;;;1.33;0.32;;;22.90;99.90;;;;;;4932006;29;20027;-73
2022/03/27 05:17:33;;;;;;;2.85;0.77;;;22.90;99.90;;;;;;4930378;29;20039;-74
2022/03/27 05:20:03;;;;;;;2.65;0.50;;;22.90;99.90;;;;;;4934825;29;20054;-74
2022/03/27 05:22:31;;;;;;;1.90;0.40;;;22.80;99.90;;;;;;4935381;29;20043;-74
2022/03/27 05:24:58;;;;;;;2.08;0.35;;;22.80;99.90;;;;;;4930366;29;20051;-73
2022/03/27 05:27:26;;;;;;;4.80;0.32;;;22.80;99.90;;;;;;4933930;29;20031;-73
2022/03/27 05:29:53;;;;;;;5.05;0.30;;;22.80;99.90;;;;;;4929942;29;20088;-74
2022/03/27 05:32:20;;;;;;;1.13;0.50;;;22.70;99.90;;;;;;4929190;29;20063;-74
2022/03/27 05:34:48;;;;;;;0.30;0.15;;;22.70;99.90;;;;;;4932224;29;20023;-75
2022/03/27 05:37:15;;;;;;;1.42;0.55;;;22.70;99.90;;;;;;4930273;29;20028;-75
2022/03/27 05:39:42;;;;;;;1.92;0.17;;;22.60;99.90;;;;;;4928835;29;20046;-75
2022/03/27 05:42:11;;;;;;;1.35;0.20;;;22.60;99.90;;;;;;4933715;29;20350;-74
2022/03/27 05:44:38;;;;;;;3.50;1.05;;;22.60;99.90;;;;;;4932698;29;20494;-74
2022/03/27 05:47:06;;;;;;;5.50;0.50;;;22.50;99.90;;;;;;4928061;29;20024;-77
2022/03/27 05:49:33;;;;;;;1.40;0.30;;;22.50;99.90;;;;;;4918896;29;20639;-76
2022/03/27 05:52:01;;;;;;;1.30;0.50;;;22.50;99.90;;;;;;4922661;29;20046;-74
2022/03/27 05:54:28;;;;;;;5.90;0.98;;;22.40;99.90;;;;;;4919551;29;20036;-74
2022/03/27 05:56:55;;;;;;;2.83;0.43;;;22.00;99.90;;;;;;4922299;29;20032;-73
2022/03/27 05:59:23;;;;;;;1.30;0.30;;;21.70;99.90;;;;;;4920387;29;20024;-75
2022/03/27 06:01:50;;;;;;;1.30;0.25;;;21.40;99.90;;;;;;4921391;29;20031;-73
2022/03/27 06:04:20;;;;;;;1.27;0.20;;;21.00;99.90;;;;;;4921238;29;20046;-74
2022/03/27 06:06:48;;;;;;;3.35;0.80;;;20.90;99.90;;;;;;4922139;29;20640;-72
2022/03/27 06:09:15;;;;;;;1.45;1.00;;;20.80;99.90;;;;;;4920701;29;20043;-73
2022/03/27 06:11:43;;;;;;;1.38;0.30;;;20.80;99.90;;;;;;4924017;29;20028;-75
2022/03/27 06:14:11;;;;;;;5.95;0.65;;;20.80;99.90;;;;;;4922510;29;20039;-74
2022/03/27 06:16:38;;;;;;;1.90;0.40;;;20.90;99.90;;;;;;4922904;29;20118;-73
2022/03/27 06:19:05;;;;;;;2.67;1.02;;;21.00;99.90;;;;;;4922251;29;20563;-76
2022/03/27 06:21:33;;;;;;;3.05;0.95;;;21.00;99.90;;;;;;4934936;29;20034;-73
2022/03/27 06:24:00;;;;;;;3.85;1.40;;;21.10;99.90;;;;;;4935147;29;20033;-72
2022/03/27 06:26:28;;;;;;;6.28;1.25;;;21.10;99.90;;;;;;4936755;29;20094;-75
2022/03/27 06:28:55;;;;;;;3.13;0.70;;;21.10;99.90;;;;;;4924882;29;20147;-75
2022/03/27 06:31:23;;;;;;;2.03;0.45;;;21.10;99.90;;;;;;4924799;29;20711;-72
2022/03/27 06:33:50;;;;;;;2.22;0.63;;;21.10;99.90;;;;;;4925148;29;20122;-75
2022/03/27 06:36:20;;;;;;;4.90;0.70;;;21.20;99.90;;;;;;4922119;28;20435;-73
2022/03/27 06:38:48;;;;;;;5.97;0.60;;;21.10;99.90;;;;;;4923406;29;20028;-75
2022/03/27 06:41:15;;;;;;;2.25;0.98;;;21.10;99.90;;;;;;4919820;29;20028;-73
2022/03/27 06:43:43;;;;;;;1.10;0.50;;;21.10;99.90;;;;;;4923216;29;20386;-76
2022/03/27 06:46:15;;;;;;;3.17;0.60;;;21.10;99.90;;;;;;4922565;29;20024;-72
2022/03/27 06:48:42;;;;;;;2.95;0.85;;;21.10;99.90;;;;;;4919853;29;20040;-72
2022/03/27 06:51:10;;;;;;;4.13;0.93;;;21.00;99.90;;;;;;4921340;29;20436;-73
2022/03/27 06:53:38;;;;;;;5.38;1.30;;;20.90;99.90;;;;;;4918460;29;20096;-72
2022/03/27 06:56:05;;;;;;;4.68;1.83;;;20.80;99.90;;;;;;4919218;29;20336;-73
2022/03/27 06:58:33;;;;;;;3.92;0.82;;;20.70;99.90;;;;;;4920191;29;20027;-74
2022/03/27 07:03:46;;;;;;;4.53;1.15;;;20.70;99.90;;;;;;4922357;29;20111;-73
2022/03/27 07:06:16;;;;;;;3.63;0.60;;;20.70;99.90;;;;;;4922134;29;20613;-74
2022/03/27 07:08:44;;;;;;;2.92;0.45;;;20.70;99.90;;;;;;4922301;29;20036;-74
2022/03/27 07:11:12;;;;;;;4.97;0.88;;;20.70;99.90;;;;;;4918470;29;20521;-74
2022/03/27 07:13:41;;;;;;;5.78;0.88;;;20.70;99.90;;;;;;4921427;29;20066;-74
2022/03/27 07:16:10;;;;;;;4.28;0.73;;;20.70;99.90;;;;;;4922012;29;20091;-75
2022/03/27 07:18:37;;;;;;;1.98;0.52;;;20.70;99.90;;;;;;4919872;29;20032;-71
2022/03/27 07:21:04;;;;;;;3.38;0.93;;;20.70;99.90;;;;;;4921363;29;20561;-73
2022/03/27 07:23:31;;;;;;;3.38;0.90;;;20.70;99.90;;;;;;4923944;29;20475;-73
2022/03/27 07:26:00;;;;;;;0.70;0.50;;;20.70;99.90;;;;;;4923269;29;20155;-74
2022/03/27 07:28:30;;;;;;;1.70;0.45;;;20.70;99.90;;;;;;4927201;29;20027;-74
2022/03/27 07:30:58;;;;;;;1.40;0.40;;;20.70;99.90;;;;;;4925495;29;20036;-76
2022/03/27 07:33:27;;;;;;;2.40;0.77;;;20.80;99.90;;;;;;4925659;29;20039;-75
2022/03/27 07:35:56;;;;;;;6.28;0.98;;;20.70;99.90;;;;;;4921069;29;20048;-75
2022/03/27 07:38:23;;;;;;;2.08;1.23;;;20.80;99.90;;;;;;4933677;29;20032;-75
2022/03/27 07:40:50;;;;;;;3.45;0.98;;;20.80;99.90;;;;;;4924747;29;20035;-75
2022/03/27 07:43:18;;;;;;;3.35;0.75;;;20.70;99.90;;;;;;4925381;29;20064;-74
2022/03/27 07:45:46;;;;;;;5.63;1.25;;;20.70;99.90;;;;;;4926053;29;20470;-74
2022/03/27 07:48:13;;;;;;;2.78;0.47;;;20.70;99.90;;;;;;4925822;29;20439;-73
2022/03/27 07:50:41;;;;;;;2.47;1.02;;;20.70;99.90;;;;;;4925619;29;20032;-73
2022/03/27 07:53:08;;;;;;;2.85;0.85;;;20.70;99.90;;;;;;4925173;29;20881;-74
2022/03/27 07:55:37;;;;;;;2.03;0.40;;;20.70;99.90;;;;;;4923903;29;20027;-74
2022/03/27 07:58:05;;;;;;;2.97;0.40;;;20.60;99.90;;;;;;4923288;29;20094;-75
2022/03/27 08:00:34;;;;;;;7.05;0.93;;;20.70;99.90;;;;;;4920791;29;20043;-75
2022/03/27 08:03:01;;;;;;;6.22;0.70;;;20.70;99.90;;;;;;4921956;29;20036;-75
2022/03/27 08:05:29;;;;;;;5.55;0.60;;;20.60;99.90;;;;;;4924553;29;20111;-74
2022/03/27 08:07:57;;;;;;;5.70;1.02;;;20.60;99.90;;;;;;4923380;29;20490;-74
2022/03/27 08:10:24;;;;;;;1.08;0.40;;;20.60;99.90;;;;;;4921549;29;20028;-73
2022/03/27 08:12:52;;;;;;;2.00;0.43;;;20.60;99.90;;;;;;4920782;29;20054;-73
2022/03/27 08:15:21;;;;;;;2.83;0.38;;;20.50;99.90;;;;;;4923347;29;20475;-73
2022/03/27 08:17:54;;;;;;;1.60;0.40;;;20.50;99.90;;;;;;4923822;29;20405;-73
2022/03/27 08:20:23;;;;;;;2.60;0.60;;;20.40;99.90;;;;;;4924595;29;20040;-73
2022/03/27 08:22:51;;;;;;;1.75;0.70;;;20.50;99.90;;;;;;4926496;29;20526;-75
2022/03/27 08:28:05;;;;;;;1.83;0.50;;;20.40;99.90;;;;;;4923747;29;20207;-74
2022/03/27 08:30:32;;;;;;;2.15;0.52;;;20.30;99.90;;;;;;4923896;29;20114;-75
2022/03/27 08:33:00;;;;;;;1.17;0.60;;;20.30;99.90;;;;;;4926639;29;20060;-75
2022/03/27 08:35:27;;;;;;;2.70;0.32;;;20.20;99.90;;;;;;4931990;29;20100;-75
2022/03/27 08:37:54;;;;;;;1.80;0.43;;;20.20;99.90;;;;;;4935205;29;20035;-75
2022/03/27 08:40:22;;;;;;;1.02;0.30;;;20.10;99.90;;;;;;4930979;29;20024;-75
2022/03/27 08:42:50;;;;;;;4.55;0.68;;;20.00;99.90;;;;;;4936177;29;20127;-75
2022/03/27 08:45:18;;;;;;;4.80;0.75;;;20.00;99.90;;;;;;4922177;29;20040;-73
2022/03/27 08:47:47;;;;;;;1.58;0.50;;;19.90;99.90;;;;;;4925732;29;20028;-73
2022/03/27 08:50:30;;;;;;;1.92;0.80;;;19.90;99.90;;;;;;4922677;29;20060;-74
2022/03/27 08:53:04;;;;;;;1.65;0.35;;;19.90;99.90;;;;;;4925544;29;20545;-75
2022/03/27 08:55:42;;;;;;;2.80;0.30;;;19.90;99.90;;;;;;4924587;29;20044;-74
2022/03/27 08:58:11;;;;;;;0.93;0.40;;;19.90;99.90;;;;;;4924619;29;20115;-72
2022/03/27 09:00:40;;;;;;;4.13;0.45;;;19.90;99.90;;;;;;4924238;29;20040;-73
2022/03/27 09:03:08;;;;;;;1.02;0.40;;;19.90;99.90;;;;;;4922612;29;20028;-73
2022/03/27 09:05:37;;;;;;;4.35;0.75;;;19.90;99.90;;;;;;4924045;28;20031;-73
2022/03/27 09:08:10;;;;;;;1.98;0.55;;;19.90;99.90;;;;;;4925895;29;20039;-75
2022/03/27 09:10:40;;;;;;;2.22;0.50;;;19.90;99.90;;;;;;4922686;29;20103;-74
2022/03/27 09:13:12;;;;;;;1.70;0.30;;;19.80;99.90;;;;;;4924899;29;20561;-75
2022/03/27 09:15:40;;;;;;;2.20;0.25;;;19.90;99.90;;;;;;4927314;29;20483;-74
2022/03/27 09:18:12;;;;;;;4.32;0.32;;;19.80;99.90;;;;;;4921107;29;20046;-73
2022/03/27 09:20:41;;;;;;;2.80;0.50;;;19.80;99.90;;;;;;4920594;29;20059;-73
2022/03/27 09:23:27;;;;;;;2.90;1.05;;;19.80;99.90;;;;;;4922662;29;20435;-72
2022/03/27 09:25:59;;;;;;;1.15;0.57;;;19.80;99.90;;;;;;4921846;29;20094;-72
2022/03/27 09:28:26;;;;;;;0.93;0.32;;;19.80;99.90;;;;;;4921507;29;20059;-73
2022/03/27 09:30:54;;;;;;;2.15;0.57;;;19.80;99.90;;;;;;4921625;29;20107;-72
2022/03/27 09:33:49;;;;;;;1.02;0.20;;;19.80;99.90;;;;;;4923663;29;20044;-72
2022/03/27 09:36:25;;;;;;;6.80;0.65;;;19.80;99.90;;;;;;4921467;29;20030;-71
2022/03/27 09:39:16;;;;;;;1.67;0.45;;;19.80;99.90;;;;;;4923798;29;20505;-72
2022/03/27 09:42:02;;;;;;;3.00;0.40;;;19.80;99.90;;;;;;4916688;29;20031;-72
2022/03/27 09:44:34;;;;;;;2.17;0.47;;;19.80;99.90;;;;;;4929253;29;20554;-73
2022/03/27 09:47:07;;;;;;;5.45;0.85;;;19.80;99.90;;;;;;4919763;29;20036;-71
2022/03/27 09:49:38;;;;;;;6.60;0.40;;;19.90;99.90;;;;;;4920019;29;20028;-72
2022/03/27 09:52:16;;;;;;;2.88;0.30;;;19.90;99.90;;;;;;4923158;29;20043;-73
2022/03/27 09:54:53;;;;;;;5.25;1.05;;;19.90;99.90;;;;;;4925256;29;20094;-72
2022/03/27 09:57:35;;;;;;;3.65;0.70;;;20.00;99.90;;;;;;4918704;29;20063;-71
2022/03/27 10:00:19;;;;;;;1.20;0.40;;;20.00;99.90;;;;;;4919896;29;20111;-73
2022/03/27 10:02:48;;;;;;;4.57;1.38;;;20.00;99.90;;;;;;4918246;29;20090;-74
2022/03/27 10:05:18;;;;;;;5.93;0.30;;;20.00;99.90;;;;;;4934188;29;20043;-73
2022/03/27 10:07:53;;;;;;;2.03;0.45;;;20.00;99.90;;;;;;4935452;29;20175;-74
2022/03/27 10:10:26;;;;;;;4.85;0.40;;;20.00;99.90;;;;;;4930111;29;20106;-74
2022/03/27 10:12:55;;;;;;;2.42;0.40;;;20.00;99.90;;;;;;4923871;29;20209;-74
2022/03/27 10:15:27;;;;;;;2.13;0.47;;;20.00;99.90;;;;;;4920373;29;20438;-72
2022/03/27 10:18:13;;;;;;;2.33;1.35;;;20.10;99.90;;;;;;4922835;29;20087;-74
2022/03/27 10:20:41;;;;;;;5.47;0.60;;;20.00;99.90;;;;;;4919527;29;20028;-73
2022/03/27 10:23:19;;;;;;;1.40;0.30;;;20.00;99.90;;;;;;4923189;29;20039;-73
2022/03/27 10:26:06;;;;;;;1.85;0.50;;;20.00;99.90;;;;;;4921066;29;20039;-72
2022/03/27 10:28:34;;;;;;;2.97;0.85;;;20.00;99.90;;;;;;4924888;29;20027;-74
2022/03/27 10:31:01;;;;;;;2.03;0.45;;;20.00;99.90;;;;;;4922551;29;20851;-72
2022/03/27 10:33:30;;;;;;;4.20;1.15;;;20.00;99.90;;;;;;4923162;29;20048;-73
2022/03/27 10:36:20;;;;;;;2.58;0.52;;;20.00;99.90;;;;;;4922768;29;20110;-73
2022/03/27 10:39:25;;;;;;;2.38;0.43;;;19.90;99.90;;;;;;4921791;29;20040;-73
2022/03/27 10:42:31;;;;;;;1.67;0.50;;;19.90;99.90;;;;;;4921313;29;20054;-72
2022/03/27 10:45:20;;;;;;;2.85;1.75;;;19.90;99.90;;;;;;4920764;29;20039;-74
2022/03/27 10:48:14;;;;;;;1.35;0.70;;;19.90;99.90;;;;;;4917923;28;20043;-75
2022/03/27 10:50:51;;;;;;;4.78;1.05;;;19.90;99.90;;;;;;4919830;29;20040;-73
2022/03/27 10:53:24;;;;;;;2.33;0.60;;;19.90;99.90;;;;;;4918351;29;20043;-75
2022/03/27 10:55:56;;;;;;;5.47;1.20;;;19.90;99.90;;;;;;4920263;29;20028;-74
2022/03/27 10:58:35;;;;;;;3.47;0.70;;;19.90;99.90;;;;;;4929839;29;20067;-75
2022/03/27 11:01:06;;;;;;;3.17;0.75;;;19.90;99.90;;;;;;4931542;29;20042;-74
2022/03/27 11:03:51;;;;;;;5.75;0.90;;;19.80;99.90;;;;;;4931528;29;20028;-75
2022/03/27 11:06:24;;;;;;;4.72;0.70;;;19.90;99.90;;;;;;4929631;29;20118;-75
2022/03/27 11:08:53;;;;;;;6.82;0.80;;;19.80;99.90;;;;;;4930055;29;20413;-72
2022/03/27 11:11:39;;;;;;;1.33;0.50;;;19.90;99.90;;;;;;4926989;29;20039;-73
2022/03/27 11:14:08;;;;;;;2.13;0.55;;;19.90;99.90;;;;;;4934066;29;20479;-75
2022/03/27 11:17:05;;;;;;;2.92;0.35;;;19.80;99.90;;;;;;4935463;28;20394;-76
2022/03/27 11:19:43;;;;;;;5.07;0.63;;;19.80;99.90;;;;;;4927388;29;20479;-75
2022/03/27 11:22:44;;;;;;;5.15;0.70;;;19.80;99.90;;;;;;4929227;29;20032;-75
2022/03/27 11:25:38;;;;;;;2.63;0.55;;;19.80;99.90;;;;;;4924893;29;20520;-76
2022/03/27 11:28:18;;;;;;;4.72;0.60;;;19.70;99.90;;;;;;4932564;29;20423;-75
2022/03/27 11:30:51;;;;;;;1.85;0.30;;;19.70;99.90;;;;;;4923834;29;20028;-73
2022/03/27 11:33:32;;;;;;;1.23;0.57;;;19.60;99.90;;;;;;4926520;29;20048;-75
2022/03/27 11:36:03;;;;;;;1.88;0.47;;;19.70;99.90;;;;;;4919235;29;20075;-75
2022/03/27 11:38:33;;;;;;;4.07;0.50;;;19.70;99.90;;;;;;4924836;29;20035;-75
2022/03/27 11:41:44;;;;;;;6.65;0.60;;;19.70;99.90;;;;;;4929584;29;20035;-75
2022/03/27 11:47:19;;;;;;;2.80;0.63;;;19.70;99.90;;;;;;4922337;29;20055;-76
2022/03/27 11:49:48;;;;;;;3.10;0.40;;;19.70;99.90;;;;;;4930913;29;20027;-76
2022/03/27 11:52:19;;;;;;;4.07;0.60;;;19.70;99.90;;;;;;4922681;29;20036;-78
2022/03/27 11:54:49;;;;;;;1.83;0.55;;;19.70;99.90;;;;;;4933971;29;20042;-76
2022/03/27 11:57:17;;;;;;;1.20;0.57;;;19.70;99.90;;;;;;4934330;29;20031;-76
2022/03/27 11:59:49;;;;;;;4.55;0.60;;;19.70;99.90;;;;;;4933136;29;20394;-75
2022/03/27 12:02:19;;;;;;;1.85;0.40;;;19.70;99.90;;;;;;4930031;29;20410;-77
2022/03/27 12:04:57;;;;;;;1.73;0.32;;;19.70;99.90;;;;;;4927693;29;20107;-75
2022/03/27 12:07:47;;;;;;;1.35;0.40;;;19.70;99.90;;;;;;4930229;29;20063;-74
2022/03/27 12:10:14;;;;;;;3.70;0.65;;;19.70;99.90;;;;;;4932241;29;20526;-76
2022/03/27 12:12:57;;;;;;;1.52;0.38;;;19.60;99.90;;;;;;4931839;29;20123;-74
2022/03/27 12:15:35;;;;;;;5.57;1.10;;;19.60;99.90;;;;;;4932133;29;20040;-75
2022/03/27 12:18:05;;;;;;;3.33;1.55;;;19.60;99.90;;;;;;4934045;29;20036;-74
2022/03/27 12:20:50;;;;;;;2.80;0.70;;;19.60;99.90;;;;;;4928653;29;20032;-74
2022/03/27 12:23:29;;;;;;;2.33;0.70;;;19.60;99.90;;;;;;4939699;29;20031;-73
2022/03/27 12:32:16;;;;;;;2.00;0.90;;;19.60;99.90;;;;;;4923791;29;20098;-73
2022/03/27 12:34:55;;;;;;;2.60;0.95;;;19.70;99.90;;;;;;4921084;29;20039;-74
2022/03/27 12:37:24;;;;;;;3.22;0.95;;;19.70;99.90;;;;;;4928919;29;20059;-73
2022/03/27 12:39:51;;;;;;;1.45;0.80;;;19.60;99.90;;;;;;4930805;29;20042;-75
2022/03/27 12:42:39;;;;;;;2.30;1.30;;;19.70;99.90;;;;;;4928625;29;20035;-75
2022/03/27 12:45:12;;;;;;;5.47;1.17;;;19.70;99.90;;;;;;4926030;29;20040;-73
2022/03/27 12:47:44;;;;;;;3.92;0.70;;;19.60;99.90;;;;;;4930047;29;20036;-73
2022/03/27 12:50:15;;;;;;;2.20;0.82;;;19.60;99.90;;;;;;4927704;29;20088;-74
2022/03/27 12:53:09;;;;;;;2.72;1.33;;;19.60;99.90;;;;;;4924102;29;20107;-76
2022/03/27 12:55:56;;;;;;;3.45;2.53;;;19.60;99.90;;;;;;4927720;29;20031;-77
2022/03/27 12:58:37;;;;;;;3.08;1.10;;;19.50;99.90;;;;;;4930644;29;20038;-74
2022/03/27 13:01:11;;;;;;;3.17;0.57;;;19.40;99.90;;;;;;4924810;29;20086;-76
2022/03/27 13:04:00;;;;;;;4.57;0.90;;;19.30;99.90;;;;;;4928328;29;20101;-74
2022/03/27 13:06:51;;;;;;;2.40;0.63;;;19.20;99.90;;;;;;4926921;29;20028;-75
2022/03/27 13:09:23;;;;;;;2.63;0.50;;;19.20;99.90;;;;;;4923011;29;20063;-74
2022/03/27 13:11:50;;;;;;;3.80;1.15;;;19.10;99.90;;;;;;4932499;29;20038;-74
2022/03/27 13:14:18;;;;;;;5.75;0.80;;;19.10;99.90;;;;;;4933428;29;20031;-74
2022/03/27 13:16:58;;;;;;;5.47;0.90;;;19.00;99.90;;;;;;4920789;29;20121;-75
2022/03/27 13:19:45;;;;;;;4.95;0.60;;;19.00;99.90;;;;;;4923528;29;20043;-75
2022/03/27 13:22:13;;;;;;;3.25;1.20;;;18.90;99.90;;;;;;4927752;29;20019;-74
2022/03/27 13:24:41;;;;;;;1.45;0.60;;;18.90;99.90;;;;;;4933075;29;20047;-75
2022/03/27 13:27:09;;;;;;;1.95;0.60;;;18.90;99.90;;;;;;4929126;29;20142;-74
2022/03/27 13:29:39;;;;;;;1.33;0.52;;;18.90;99.90;;;;;;4938576;29;20067;-74
2022/03/27 13:32:07;;;;;;;2.00;0.63;;;18.80;99.90;;;;;;4928982;29;20066;-75
2022/03/27 13:34:35;;;;;;;1.88;0.70;;;18.80;99.90;;;;;;4923187;29;20115;-74
2022/03/27 13:37:02;;;;;;;5.72;1.50;;;18.80;99.90;;;;;;4934766;29;20041;-73